createdAt,value
2019-03-13T00:00:15.558Z,40.50
2019-03-13T00:02:47.760Z,41.07
2019-03-13T00:05:18.037Z,41.07
2019-03-13T00:07:48.538Z,41.60
2019-03-13T00:10:19.339Z,42.39
2019-03-13T00:12:49.803Z,42.59
2019-03-13T00:15:20.471Z,43.67
2019-03-13T00:17:51.409Z,47.55
2019-03-13T00:20:21.761Z,47.55
2019-03-13T00:22:52.149Z,47.32
2019-03-13T00:25:23.316Z,47.06
2019-03-13T00:27:53.741Z,48.26
2019-03-13T00:30:24.324Z,48.09
2019-03-13T00:32:54.694Z,48.10
2019-03-13T00:35:25.317Z,49.04
2019-03-13T00:37:55.456Z,48.72
2019-03-13T00:40:25.796Z,48.43
2019-03-13T00:42:56.221Z,48.43
2019-03-13T00:45:26.150Z,48.71
2019-03-13T00:47:56.639Z,48.34
2019-03-13T00:50:30.465Z,49.30
2019-03-13T00:53:00.343Z,48.27
2019-03-13T00:55:30.561Z,47.83
2019-03-13T00:58:02.530Z,47.98
2019-03-13T01:00:50.442Z,47.98
2019-03-13T01:03:39.530Z,47.51
2019-03-13T01:06:14.567Z,48.32
2019-03-13T01:08:43.575Z,48.32
2019-03-13T01:11:14.290Z,49.21
2019-03-13T01:13:44.829Z,49.21
2019-03-13T01:16:14.762Z,48.44
2019-03-13T01:18:44.540Z,48.63
2019-03-13T01:21:14.567Z,48.20
2019-03-13T01:23:43.753Z,48.20
2019-03-13T01:26:15.326Z,49.15
2019-03-13T01:28:45.786Z,48.57
2019-03-13T01:31:41.995Z,49.62
2019-03-13T01:34:44.421Z,49.65
2019-03-13T01:37:15.638Z,50.42
2019-03-13T01:39:46.654Z,50.42
2019-03-13T01:42:16.992Z,50.22
2019-03-13T01:44:47.473Z,52.17
2019-03-13T01:47:17.916Z,51.88
2019-03-13T01:49:49.305Z,51.88
2019-03-13T01:52:20.324Z,50.91
2019-03-13T01:54:50.723Z,49.96
2019-03-13T01:57:21.513Z,49.79
2019-03-13T01:59:51.542Z,49.69
2019-03-13T02:02:21.116Z,50.04
2019-03-13T02:04:50.890Z,49.52
2019-03-13T02:07:20.673Z,49.52
2019-03-13T02:09:51.659Z,49.61
2019-03-13T02:12:22.898Z,49.64
2019-03-13T02:14:52.604Z,49.26
2019-03-13T02:17:21.759Z,49.29
2019-03-13T02:19:50.499Z,49.69
2019-03-13T02:22:21.566Z,49.15
2019-03-13T02:24:50.476Z,49.15
2019-03-13T02:27:20.702Z,49.43
2019-03-13T02:29:50.662Z,49.43
2019-03-13T02:32:20.793Z,48.71
2019-03-13T02:34:50.830Z,48.95
2019-03-13T02:37:20.645Z,48.56
2019-03-13T02:39:51.329Z,49.02
2019-03-13T02:42:22.760Z,47.59
2019-03-13T02:44:52.923Z,48.30
2019-03-13T02:47:23.525Z,48.03
2019-03-13T02:49:53.593Z,49.22
2019-03-13T02:52:22.817Z,49.22
2019-03-13T02:54:53.439Z,49.63
2019-03-13T02:57:24.101Z,49.43
2019-03-13T02:59:56.132Z,49.43
2019-03-13T03:02:51.634Z,49.80
2019-03-13T03:05:20.801Z,49.55
2019-03-13T03:07:51.556Z,50.46
2019-03-13T03:10:23.257Z,51.00
2019-03-13T03:12:54.159Z,50.32
2019-03-13T03:15:24.936Z,51.04
2019-03-13T03:17:56.329Z,50.75
2019-03-13T03:20:27.470Z,51.56
2019-03-13T03:22:57.535Z,51.77
2019-03-13T03:25:28.383Z,51.77
2019-03-13T03:27:59.633Z,52.04
2019-03-13T03:30:30.326Z,52.04
2019-03-13T03:33:00.326Z,53.64
2019-03-13T03:35:30.144Z,53.18
2019-03-13T03:38:00.870Z,52.45
2019-03-13T03:40:30.679Z,54.50
2019-03-13T03:42:59.827Z,55.06
2019-03-13T03:45:29.848Z,55.06
2019-03-13T03:48:00.636Z,55.66
2019-03-13T03:50:30.696Z,55.89
2019-03-13T03:53:00.861Z,55.84
2019-03-13T03:55:31.316Z,55.46
2019-03-13T03:58:01.647Z,56.04
2019-03-13T04:00:31.619Z,55.90
2019-03-13T04:03:01.551Z,56.13
2019-03-13T04:05:31.578Z,58.00
2019-03-13T04:08:00.894Z,58.00
2019-03-13T04:10:31.313Z,58.59
2019-03-13T04:13:01.816Z,58.08
2019-03-13T04:15:31.557Z,55.96
2019-03-13T04:18:01.587Z,55.84
2019-03-13T04:20:31.375Z,55.89
2019-03-13T04:23:01.327Z,54.11
2019-03-13T04:25:36.476Z,54.43
2019-03-13T04:28:07.435Z,55.37
2019-03-13T04:30:37.599Z,55.37
2019-03-13T04:33:07.690Z,54.57
2019-03-13T04:35:37.593Z,55.27
2019-03-13T04:38:06.688Z,55.75
2019-03-13T04:40:36.660Z,56.36
2019-03-13T04:43:06.445Z,57.58
2019-03-13T04:45:36.592Z,57.44
2019-03-13T04:48:05.940Z,59.23
2019-03-13T04:50:35.807Z,57.59
2019-03-13T04:53:05.682Z,57.50
2019-03-13T04:55:34.492Z,57.95
2019-03-13T04:58:04.842Z,58.31
2019-03-13T05:00:34.705Z,58.31
2019-03-13T05:03:04.986Z,57.35
2019-03-13T05:05:47.188Z,57.84
2019-03-13T05:08:51.615Z,57.37
2019-03-13T05:11:20.679Z,58.40
2019-03-13T05:13:50.866Z,59.15
2019-03-13T05:16:21.502Z,58.76
2019-03-13T05:18:51.327Z,58.88
2019-03-13T05:21:21.476Z,59.59
2019-03-13T05:23:51.166Z,59.99
2019-03-13T05:26:21.933Z,59.99
2019-03-13T05:28:54.571Z,57.61
2019-03-13T05:31:24.889Z,60.09
2019-03-13T05:33:54.482Z,58.62
2019-03-13T05:36:24.311Z,59.37
2019-03-13T05:38:56.314Z,59.31
2019-03-13T05:41:26.566Z,56.80
2019-03-13T05:43:55.658Z,58.85
2019-03-13T05:46:24.885Z,58.51
2019-03-13T05:48:55.105Z,58.65
2019-03-13T05:51:24.993Z,57.59
2019-03-13T05:53:57.515Z,58.15
2019-03-13T05:56:27.277Z,57.21
2019-03-13T05:58:57.514Z,57.21
2019-03-13T06:01:27.549Z,57.62
2019-03-13T06:03:57.332Z,58.98
2019-03-13T06:06:27.314Z,58.98
2019-03-13T06:08:57.076Z,58.61
2019-03-13T06:11:27.505Z,61.17
2019-03-13T06:13:57.198Z,61.74
2019-03-13T06:16:27.715Z,61.27
2019-03-13T06:18:58.510Z,60.79
2019-03-13T06:21:29.170Z,60.41
2019-03-13T06:23:59.527Z,60.57
2019-03-13T06:26:30.527Z,60.40
2019-03-13T06:29:00.859Z,59.46
2019-03-13T06:31:30.905Z,59.46
2019-03-13T06:34:00.837Z,58.56
2019-03-13T06:36:30.813Z,58.10
2019-03-13T06:39:00.997Z,57.78
2019-03-13T06:41:32.675Z,58.39
2019-03-13T06:44:01.816Z,57.76
2019-03-13T06:46:31.676Z,58.03
2019-03-13T06:49:00.817Z,58.71
2019-03-13T06:51:30.787Z,58.98
2019-03-13T06:54:00.946Z,58.89
2019-03-13T06:56:30.917Z,58.12
2019-03-13T06:59:21.987Z,58.35
2019-03-13T07:02:10.753Z,57.28
2019-03-13T07:04:50.867Z,57.49
2019-03-13T07:07:34.053Z,55.87
2019-03-13T07:10:24.110Z,55.50
2019-03-13T07:13:08.322Z,53.82
2019-03-13T07:15:46.867Z,54.08
2019-03-13T07:18:32.962Z,54.08
2019-03-13T07:21:29.325Z,51.49
2019-03-13T07:24:11.337Z,45.79
2019-03-13T07:31:19.339Z,43.87
2019-03-13T07:34:45.572Z,44.55
2019-03-13T07:37:51.328Z,44.21
2019-03-13T07:41:10.808Z,44.21
2019-03-13T07:44:37.149Z,44.23
2019-03-13T07:47:37.731Z,44.27
2019-03-13T07:50:46.552Z,41.62
2019-03-13T07:53:51.302Z,41.62
2019-03-13T07:56:56.636Z,32.98
2019-03-13T07:59:44.643Z,32.98
2019-03-13T08:02:22.473Z,29.19
2019-03-13T08:05:27.479Z,25.65
2019-03-13T08:08:26.893Z,27.21
2019-03-13T08:11:22.212Z,27.21
2019-03-13T08:14:11.609Z,26.67
2019-03-13T08:17:01.141Z,24.78
2019-03-13T08:19:49.776Z,23.40
2019-03-13T08:22:34.633Z,22.94
2019-03-13T08:25:23.788Z,22.89
2019-03-13T08:28:17.442Z,22.71
2019-03-13T08:31:05.824Z,22.70
2019-03-13T08:34:09.323Z,21.60
2019-03-13T08:36:57.849Z,20.69
2019-03-13T08:39:46.300Z,18.89
2019-03-13T08:42:51.960Z,18.67
2019-03-13T08:45:48.733Z,21.30
2019-03-13T08:48:50.747Z,25.93
2019-03-13T08:51:36.353Z,25.03
2019-03-13T08:54:24.948Z,24.71
2019-03-13T08:57:07.145Z,27.55
2019-03-13T08:59:56.551Z,28.56
2019-03-13T09:03:02.175Z,30.76
2019-03-13T09:05:54.317Z,31.24
2019-03-13T09:08:43.962Z,33.71
2019-03-13T09:11:32.589Z,32.53
2019-03-13T09:14:21.524Z,31.67
2019-03-13T09:17:10.640Z,29.81
2019-03-13T09:20:35.250Z,24.89
2019-03-13T09:23:18.773Z,21.80
2019-03-13T09:26:17.552Z,23.57
2019-03-13T09:28:56.561Z,23.60
2019-03-13T09:31:52.978Z,25.36
2019-03-13T09:34:48.187Z,27.27
2019-03-13T09:37:43.681Z,27.62
2019-03-13T09:40:32.510Z,23.83
2019-03-13T09:43:37.137Z,21.34
2019-03-13T09:46:26.935Z,21.34
2019-03-13T09:49:28.566Z,20.92
2019-03-13T09:52:19.308Z,20.92
2019-03-13T09:55:06.753Z,20.92
2019-03-13T09:58:02.336Z,21.52
2019-03-13T10:00:47.785Z,19.82
2019-03-13T10:03:39.719Z,23.13
2019-03-13T10:06:23.895Z,23.60
2019-03-13T10:09:13.710Z,25.20
2019-03-13T10:12:03.441Z,24.07
2019-03-13T10:14:56.938Z,23.05
2019-03-13T10:17:37.514Z,24.15
2019-03-13T10:20:27.041Z,24.30
2019-03-13T10:23:16.525Z,25.07
2019-03-13T10:26:03.637Z,27.00
2019-03-13T10:28:53.193Z,27.00
2019-03-13T10:31:47.682Z,27.66
2019-03-13T10:34:28.547Z,29.46
2019-03-13T10:37:10.678Z,29.07
2019-03-13T10:39:57.925Z,27.53
2019-03-13T10:42:47.048Z,28.07
2019-03-13T10:45:35.995Z,28.74
2019-03-13T10:48:11.676Z,27.59
2019-03-13T10:50:59.856Z,26.03
2019-03-13T10:53:49.148Z,27.54
2019-03-13T10:56:38.873Z,28.48
2019-03-13T10:59:25.577Z,30.29
2019-03-13T11:02:26.819Z,30.02
2019-03-13T11:05:17.595Z,31.25
2019-03-13T11:08:20.561Z,32.26
2019-03-13T11:11:14.854Z,32.48
2019-03-13T11:14:18.811Z,31.08
2019-03-13T11:17:19.522Z,29.89
2019-03-13T11:20:25.825Z,29.62
2019-03-13T11:23:16.311Z,23.32
2019-03-13T11:26:01.231Z,23.36
2019-03-13T11:28:48.846Z,24.77
2019-03-13T11:31:37.464Z,26.32
2019-03-13T11:34:18.722Z,27.54
2019-03-13T11:37:07.132Z,27.54
2019-03-13T11:39:51.744Z,29.04
2019-03-13T11:42:42.775Z,28.98
2019-03-13T11:45:23.898Z,30.18
2019-03-13T11:48:19.107Z,30.90
2019-03-13T11:51:17.641Z,31.52
2019-03-13T11:54:07.026Z,31.24
2019-03-13T11:56:57.324Z,31.75
2019-03-13T11:59:49.560Z,32.45
2019-03-13T12:02:44.571Z,32.24
2019-03-13T12:05:41.322Z,35.95
2019-03-13T12:08:49.686Z,35.95
2019-03-13T12:11:57.394Z,34.47
2019-03-13T12:14:53.320Z,34.64
2019-03-13T12:17:33.323Z,33.76
2019-03-13T12:20:27.150Z,33.59
2019-03-13T12:23:13.678Z,34.93
2019-03-13T12:26:03.448Z,34.14
2019-03-13T12:28:54.903Z,31.96
2019-03-13T12:31:44.424Z,27.43
2019-03-13T12:34:34.358Z,25.74
2019-03-13T12:37:21.325Z,24.40
2019-03-13T12:40:25.979Z,24.67
2019-03-13T12:43:15.853Z,25.88
2019-03-13T12:45:54.597Z,29.46
2019-03-13T12:48:41.538Z,32.94
2019-03-13T12:51:32.766Z,30.54
2019-03-13T12:54:20.731Z,30.54
2019-03-13T12:57:15.977Z,30.37
2019-03-13T13:00:05.341Z,27.92
2019-03-13T13:02:56.630Z,24.26
2019-03-13T13:05:45.294Z,21.43
2019-03-13T13:08:34.649Z,23.02
2019-03-13T13:11:23.327Z,28.48
2019-03-13T13:14:15.616Z,31.60
2019-03-13T13:17:04.573Z,32.40
2019-03-13T13:19:34.488Z,35.12
2019-03-13T13:22:04.623Z,44.67
2019-03-13T13:24:35.474Z,44.67
2019-03-13T13:27:06.783Z,45.37
2019-03-13T13:29:39.814Z,49.88
2019-03-13T13:32:11.710Z,56.12
2019-03-13T13:34:43.483Z,57.79
2019-03-13T13:37:14.145Z,61.01
2019-03-13T13:39:45.183Z,61.01
2019-03-13T13:42:15.028Z,56.16
2019-03-13T13:44:45.970Z,51.15
2019-03-13T13:47:17.028Z,47.75
2019-03-13T13:49:59.137Z,44.32
2019-03-13T13:52:20.949Z,46.05
2019-03-13T13:54:51.154Z,45.74
2019-03-13T13:57:23.037Z,41.84
2019-03-13T13:59:53.942Z,41.37
2019-03-13T14:02:25.321Z,42.50
2019-03-13T14:04:56.574Z,42.36
2019-03-13T14:07:27.159Z,39.45
2019-03-13T14:10:02.779Z,43.18
2019-03-13T14:12:34.381Z,42.42
2019-03-13T14:15:05.311Z,42.03
2019-03-13T14:17:36.754Z,42.03
2019-03-13T14:20:08.334Z,44.71
2019-03-13T14:22:40.821Z,47.65
2019-03-13T14:25:11.956Z,45.08
2019-03-13T14:30:46.878Z,43.04
2019-03-13T14:34:22.022Z,40.68
2019-03-13T14:46:39.214Z,39.87
2019-03-13T14:50:25.256Z,38.58
2019-03-13T14:58:03.776Z,37.81
2019-03-13T15:01:21.189Z,37.45
2019-03-13T15:37:43.901Z,36.58
2019-03-13T15:50:48.707Z,36.18
2019-03-13T16:21:10.148Z,36.51
2019-03-13T16:24:31.254Z,37.89
2019-03-13T16:33:07.552Z,40.04
2019-03-13T16:36:20.331Z,40.39
2019-03-13T16:42:01.744Z,40.03
2019-03-13T16:45:53.563Z,39.68
2019-03-13T17:21:15.230Z,44.21
2019-03-13T17:29:37.308Z,44.69
2019-03-13T17:55:28.074Z,45.54
2019-03-13T18:19:19.721Z,45.60
2019-03-13T18:22:19.653Z,47.20
2019-03-13T18:25:22.476Z,46.84
2019-03-13T18:28:27.188Z,45.49
2019-03-13T18:31:13.793Z,46.10
2019-03-13T18:33:50.249Z,47.82
2019-03-13T18:49:40.903Z,47.92
2019-03-13T19:02:55.275Z,52.96
2019-03-13T19:06:28.709Z,55.40
2019-03-13T19:10:04.884Z,55.89
2019-03-13T19:13:30.836Z,57.34
2019-03-13T19:16:38.076Z,59.49
2019-03-13T19:19:45.504Z,61.21
2019-03-13T19:37:42.104Z,61.01
2019-03-13T19:45:15.375Z,62.12
2019-03-13T19:49:57.788Z,61.50
2019-03-13T20:36:12.757Z,61.12
2019-03-13T20:40:31.653Z,60.78
2019-03-13T20:43:34.059Z,58.97
2019-03-13T20:47:05.647Z,60.02
2019-03-13T20:49:57.575Z,60.02
2019-03-13T20:53:29.781Z,59.96
2019-03-13T20:56:44.127Z,59.19
2019-03-13T21:00:19.465Z,59.83
2019-03-13T21:07:29.408Z,59.41
2019-03-13T21:09:59.719Z,59.12
2019-03-13T21:12:29.601Z,59.80
2019-03-13T21:14:58.748Z,59.67
2019-03-13T21:17:28.480Z,59.93
2019-03-13T21:19:58.340Z,61.50
2019-03-13T21:22:28.058Z,61.50
2019-03-13T21:24:57.845Z,62.65
2019-03-13T21:27:29.722Z,63.85
2019-03-13T21:29:59.349Z,65.08
2019-03-13T21:32:28.943Z,67.38
2019-03-13T21:34:59.565Z,66.77
2019-03-13T21:37:28.541Z,69.22
2019-03-13T21:39:58.612Z,69.22
2019-03-13T21:42:27.767Z,69.56
2019-03-13T21:44:57.581Z,69.88
2019-03-13T21:47:26.482Z,72.44
2019-03-13T21:49:56.714Z,72.64
2019-03-13T21:52:26.575Z,72.64
2019-03-13T21:54:56.192Z,72.60
2019-03-13T21:57:26.113Z,72.60
2019-03-13T21:59:55.845Z,74.42
2019-03-13T22:02:32.908Z,74.05
2019-03-13T22:05:04.709Z,73.45
2019-03-13T22:07:35.867Z,75.82
2019-03-13T22:10:06.846Z,74.00
2019-03-13T22:12:36.566Z,74.69
2019-03-13T22:15:07.537Z,73.24
2019-03-13T22:17:37.316Z,73.14
2019-03-13T22:20:07.733Z,73.14
2019-03-13T22:22:37.183Z,71.48
2019-03-13T22:25:07.768Z,71.65
2019-03-13T22:27:38.604Z,72.58
2019-03-13T22:30:11.046Z,71.27
2019-03-13T22:32:40.661Z,72.42
2019-03-13T22:35:10.466Z,72.58
2019-03-13T22:37:40.120Z,73.70
2019-03-13T22:40:10.794Z,72.50
2019-03-13T22:42:40.822Z,74.03
2019-03-13T22:45:11.837Z,74.82
2019-03-13T22:47:43.020Z,74.04
2019-03-13T22:50:15.960Z,73.39
2019-03-13T22:52:47.516Z,71.84
2019-03-13T22:55:17.056Z,72.27
2019-03-13T22:57:46.758Z,71.93
2019-03-13T23:00:59.311Z,70.93
2019-03-13T23:03:31.843Z,71.10
2019-03-13T23:06:01.598Z,71.16
2019-03-13T23:08:31.497Z,70.91
2019-03-13T23:11:00.803Z,71.70
2019-03-13T23:13:30.526Z,69.99
2019-03-13T23:16:00.342Z,71.27
2019-03-13T23:18:29.836Z,71.27
2019-03-13T23:20:59.565Z,72.63
2019-03-13T23:23:29.069Z,72.17
2019-03-13T23:25:58.868Z,72.17
2019-03-13T23:28:28.681Z,72.02
2019-03-13T23:30:58.094Z,69.11
2019-03-13T23:33:27.911Z,69.65
2019-03-13T23:35:57.567Z,70.42
2019-03-13T23:38:27.141Z,69.49
2019-03-13T23:40:57.106Z,70.93
2019-03-13T23:43:26.821Z,69.93
2019-03-13T23:45:56.588Z,68.57
2019-03-13T23:48:25.498Z,68.66
2019-03-13T23:50:55.671Z,69.03
2019-03-13T23:53:25.057Z,69.03
2019-03-13T23:55:55.324Z,69.40
2019-03-13T23:58:25.320Z,70.72
